KGLR/GLR METAR and TAF weather

Enter ICAO airport designator
Station Type Date Time Source
KGLR METAR 2020/09/19 20:53 UTC NOAA

KGLR 192053Z AUTO 20008G16KT 10SM CLR 15/01 A3032 RMK AO2 SLP277 T01500006 58017


Station Type Date Time Source
KGLR Decoded METAR 2020/09/19 20:53 UTC NOAA

GAYLORD REGIONAL AIRPORT, MI, United States (KGLR) 45-01N 84-41W 407M
Sep 19, 2020 - 04:53 PM EDT / 2020.09.19 2053 UTC
Wind: from the SSW (200 degrees) at 9 MPH (8 KT) gusting to 18 MPH (16 KT):0
Visibility: 10 mile(s):0
Sky conditions: clear
Temperature: 59.0 F (15.0 C)
Dew Point: 33.1 F (0.6 C)
Relative Humidity: 37%
Pressure (altimeter): 30.32 in. Hg (1026 hPa)
Pressure tendency: 0.05 inches (1.7 hPa) lower than three hours ago
ob: KGLR 192053Z AUTO 20008G16KT 10SM CLR 15/01 A3032 RMK AO2 SLP277 T01500006 58017
cycle: 21

Station Type Date Time Source
KGLR TAF UTC NOAA

Error!

Example: see airport list